Terminal Aerodrome Forecast
Issued by NWS

Home | Current Version | Previous Version | Graphics & Text | Print | Product List | Glossary On
Versions: 1 2 3 4 5 6 7 8 9 10 11 12 13 14 15 16 17
892
FTUS43 KBIS 220521
TAFMOT
TAF
KMOT 220521Z 2206/2306 00000KT P6SM SCT060 BKN100
     FM221100 31006KT P6SM SCT050 BKN110
     FM221900 34018G26KT P6SM SCT050 BKN070
     FM230200 35011KT P6SM SCT060 BKN090=

USA.gov is the U.S. government's official web portal to all federal, state and local government web resources and services.